Time;durP1;ratioP1;P1;durP2;ratioP2;P2;SDS_P1;SDS_P2;PMS_P1;PMS_P2;Temp;Humidity;BMP_temperature;BMP_pressure;BME280_temperature;BME280_humidity;BME280_pressure;Samples;Min_cycle;Max_cycle;Signal;HPM_P1;HPM_P2
2023/01/18 00:01:40;;;;;;;1.40;1.30;;;0.10;99.90;;;;;;4399472;32;20078;-73
2023/01/18 00:04:06;;;;;;;3.83;1.85;;;0.10;99.90;;;;;;4407487;32;20069;-73
2023/01/18 00:06:31;;;;;;;1.92;1.50;;;0.20;99.90;;;;;;4407188;32;20148;-74
2023/01/18 00:08:57;;;;;;;1.92;1.75;;;0.20;99.90;;;;;;4405497;32;20082;-74
2023/01/18 00:11:23;;;;;;;1.08;1.08;;;0.20;99.90;;;;;;4391863;32;20157;-73
2023/01/18 00:13:48;;;;;;;1.27;1.15;;;0.20;99.90;;;;;;4389743;32;20073;-73
2023/01/18 00:16:17;;;;;;;1.40;1.15;;;0.10;99.90;;;;;;4397392;32;20121;-74
2023/01/18 00:18:48;;;;;;;1.90;1.27;;;0.10;99.90;;;;;;4398645;32;20124;-73
2023/01/18 00:21:14;;;;;;;;;;;0.10;99.90;;;;;;4406682;32;20508;-74
2023/01/18 00:23:39;;;;;;;2.42;1.75;;;0.10;99.90;;;;;;4406717;32;19957;-73
2023/01/18 00:26:07;;;;;;;0.88;0.88;;;0.10;99.90;;;;;;4408112;32;20152;-73
2023/01/18 00:28:33;;;;;;;0.50;0.50;;;0.10;99.90;;;;;;4405350;32;20109;-73
2023/01/18 00:30:58;;;;;;;0.95;0.95;;;0.10;99.90;;;;;;4393235;32;20073;-73
2023/01/18 00:33:24;;;;;;;1.45;1.02;;;0.30;99.90;;;;;;4403932;32;20058;-73
2023/01/18 00:36:05;;;;;;;0.70;0.70;;;0.30;99.90;;;;;;4405870;32;20077;-73
2023/01/18 00:38:31;;;;;;;2.05;1.35;;;0.20;99.90;;;;;;4403848;32;20070;-73
2023/01/18 00:40:56;;;;;;;0.55;0.55;;;0.20;99.90;;;;;;4397280;32;20611;-73
2023/01/18 00:43:37;;;;;;;2.30;1.52;;;0.20;99.90;;;;;;4387260;32;20081;-73
2023/01/18 00:46:04;;;;;;;1.23;1.12;;;0.30;99.90;;;;;;4395563;32;20092;-73
2023/01/18 00:48:29;;;;;;;0.93;0.93;;;0.30;99.90;;;;;;4396754;32;20722;-73
2023/01/18 00:50:55;;;;;;;0.88;0.88;;;0.30;99.90;;;;;;4407736;32;20077;-73
2023/01/18 00:53:20;;;;;;;0.60;0.60;;;0.30;99.90;;;;;;4407872;32;20085;-74
2023/01/18 00:55:46;;;;;;;0.70;0.70;;;0.20;99.90;;;;;;4405551;32;20700;-74
2023/01/18 00:58:12;;;;;;;0.88;0.88;;;0.20;99.90;;;;;;4406017;32;20081;-74
2023/01/18 01:00:37;;;;;;;0.80;0.80;;;0.20;99.90;;;;;;4395765;32;20430;-74
2023/01/18 01:03:03;;;;;;;0.85;0.85;;;0.30;99.90;;;;;;4404407;32;20093;-74
2023/01/18 01:06:45;;;;;;;0.60;0.60;;;0.40;99.90;;;;;;4406747;32;20082;-74
2023/01/18 01:08:16;;;;;;;0.50;0.50;;;0.50;99.90;;;;;;4392798;32;20193;-74
2023/01/18 01:10:45;;;;;;;0.95;0.95;;;0.50;99.90;;;;;;4400207;32;20112;-74
2023/01/18 01:26:12;;;;;;;0.50;0.50;;;0.30;99.90;;;;;;4393429;32;20592;-74
2023/01/18 01:26:58;;;;;;;0.73;0.73;;;0.20;99.90;;;;;;4394544;32;20394;-74
2023/01/18 01:29:23;;;;;;;3.00;1.48;;;0.30;99.90;;;;;;4405621;32;20521;-73
2023/01/18 01:31:49;;;;;;;0.70;0.70;;;0.40;99.90;;;;;;4399545;32;20095;-75
2023/01/18 01:34:14;;;;;;;1.02;1.02;;;0.30;99.90;;;;;;4407916;32;20402;-74
2023/01/18 01:36:40;;;;;;;2.12;1.75;;;0.30;99.90;;;;;;4407437;32;20545;-74
2023/01/18 01:39:07;;;;;;;1.48;1.37;;;0.40;99.90;;;;;;4407330;32;20070;-74
2023/01/18 01:41:34;;;;;;;1.17;0.95;;;0.50;99.90;;;;;;4395776;32;20086;-74
2023/01/18 01:44:28;;;;;;;0.98;0.98;;;0.50;99.90;;;;;;4391830;32;20759;-74
2023/01/18 01:46:59;;;;;;;4.68;2.08;;;0.40;99.90;;;;;;4388432;32;20098;-74
2023/01/18 01:49:45;;;;;;;0.80;0.80;;;0.40;99.90;;;;;;4404299;32;20086;-74
2023/01/18 01:52:18;;;;;;;0.60;0.60;;;0.40;99.90;;;;;;4407540;32;20145;-73
2023/01/18 01:54:58;;;;;;;1.92;1.37;;;0.40;99.90;;;;;;4408238;32;20150;-73
2023/01/18 01:57:29;;;;;;;1.50;1.40;;;0.40;99.90;;;;;;4393775;32;20156;-74
2023/01/18 01:59:59;;;;;;;4.05;3.10;;;0.40;99.90;;;;;;4401696;32;20152;-74
2023/01/18 02:02:25;;;;;;;1.58;0.75;;;0.40;99.90;;;;;;4402160;32;20472;-73
2023/01/18 02:04:53;;;;;;;1.30;1.20;;;0.30;99.90;;;;;;4407789;32;20065;-74
2023/01/18 02:07:19;;;;;;;7.47;3.80;;;0.30;99.90;;;;;;4407630;32;20065;-74
2023/01/18 02:09:45;;;;;;;1.48;1.33;;;0.40;99.90;;;;;;4404705;32;20086;-74
2023/01/18 02:12:11;;;;;;;2.03;1.77;;;0.40;99.90;;;;;;4391523;32;20086;-73
2023/01/18 02:14:37;;;;;;;1.30;1.23;;;0.40;99.90;;;;;;4393508;32;20101;-75
2023/01/18 02:17:31;;;;;;;1.15;1.15;;;0.50;99.90;;;;;;4399052;32;20604;-73
2023/01/18 02:20:22;;;;;;;1.50;1.00;;;0.60;99.90;;;;;;4397291;32;20085;-74
2023/01/18 02:23:06;;;;;;;5.62;2.47;;;0.60;99.90;;;;;;4406893;32;20110;-73
2023/01/18 02:26:04;;;;;;;1.02;0.93;;;0.50;99.90;;;;;;4409477;32;20526;-73
2023/01/18 02:28:36;;;;;;;0.60;0.60;;;0.50;99.90;;;;;;4395115;32;20207;-72
2023/01/18 02:31:17;;;;;;;2.58;1.25;;;0.50;99.90;;;;;;4396934;32;20124;-73
2023/01/18 02:34:05;;;;;;;1.37;1.00;;;0.60;99.90;;;;;;4408407;32;20070;-73
2023/01/18 02:36:51;;;;;;;0.90;0.90;;;0.70;99.90;;;;;;4397938;32;20086;-73
2023/01/18 02:39:30;;;;;;;5.55;2.03;;;0.60;99.90;;;;;;4393984;32;20543;-73
2023/01/18 02:46:50;;;;;;;1.58;1.48;;;0.40;99.90;;;;;;4381714;32;20596;-74
2023/01/18 02:47:36;;;;;;;1.40;1.33;;;0.40;99.90;;;;;;4383560;32;20105;-73
2023/01/18 02:50:02;;;;;;;0.60;0.60;;;0.40;99.90;;;;;;4408095;32;20422;-75
2023/01/18 02:52:38;;;;;;;0.95;0.95;;;0.30;99.90;;;;;;4406510;32;20105;-73
2023/01/18 02:55:08;;;;;;;0.77;0.77;;;0.40;99.90;;;;;;4407767;32;20529;-74
2023/01/18 02:57:34;;;;;;;0.73;0.73;;;0.40;99.90;;;;;;4407556;32;20094;-75
2023/01/18 03:00:03;;;;;;;0.90;0.90;;;0.50;99.90;;;;;;4387833;32;20069;-74
2023/01/18 03:02:28;;;;;;;8.38;1.80;;;0.50;99.90;;;;;;4402861;32;20082;-74
2023/01/18 03:04:54;;;;;;;0.65;0.65;;;0.50;99.90;;;;;;4406820;32;20093;-74
2023/01/18 03:07:23;;;;;;;2.22;1.77;;;0.50;99.90;;;;;;4406604;32;20137;-74
2023/01/18 03:09:49;;;;;;;0.85;0.85;;;0.50;99.90;;;;;;4404064;32;20074;-73
2023/01/18 03:12:25;;;;;;;2.47;1.25;;;0.40;99.90;;;;;;4391671;32;20089;-73
2023/01/18 03:15:03;;;;;;;3.72;1.60;;;0.40;99.90;;;;;;4395896;32;20542;-73
2023/01/18 03:17:38;;;;;;;3.30;1.42;;;0.50;99.90;;;;;;4397174;32;20128;-73
2023/01/18 03:20:10;;;;;;;0.85;0.85;;;0.50;99.90;;;;;;4407327;32;20069;-73
2023/01/18 03:23:59;;;;;;;1.65;1.55;;;0.50;99.90;;;;;;4408386;32;20069;-73
2023/01/18 03:25:49;;;;;;;0.80;0.80;;;0.40;99.90;;;;;;4388998;32;20153;-73
2023/01/18 03:33:44;;;;;;;0.70;0.70;;;0.50;99.90;;;;;;4382818;32;20087;-73
2023/01/18 03:34:08;;;;;;;1.53;1.23;;;0.40;99.90;;;;;;4392892;32;20102;-74
2023/01/18 03:36:38;;;;;;;0.70;0.70;;;0.50;99.90;;;;;;4406853;32;20182;-74
2023/01/18 03:39:09;;;;;;;0.60;0.60;;;0.60;99.90;;;;;;4405836;32;20529;-73
2023/01/18 03:41:38;;;;;;;0.90;0.90;;;0.60;99.90;;;;;;4393743;32;20061;-73
2023/01/18 03:44:10;;;;;;;0.75;0.75;;;0.70;99.90;;;;;;4389056;32;20496;-74
2023/01/18 03:46:37;;;;;;;0.80;0.80;;;0.70;99.90;;;;;;4398167;32;20506;-74
2023/01/18 03:49:02;;;;;;;0.77;0.77;;;0.60;99.90;;;;;;4400444;32;20089;-74
2023/01/18 03:51:39;;;;;;;4.43;2.28;;;0.60;99.90;;;;;;4406911;32;20132;-75
2023/01/18 03:54:28;;;;;;;0.95;0.95;;;0.60;99.90;;;;;;4405754;32;20097;-73
2023/01/18 03:57:01;;;;;;;1.12;1.12;;;0.70;99.90;;;;;;4395397;32;20062;-74
2023/01/18 03:59:33;;;;;;;0.75;0.75;;;0.60;99.90;;;;;;4402348;32;20100;-73
2023/01/18 04:02:01;;;;;;;1.25;1.12;;;0.50;99.90;;;;;;4399620;32;20074;-74
2023/01/18 04:04:27;;;;;;;0.62;0.62;;;0.50;99.90;;;;;;4407305;32;20089;-74
2023/01/18 04:06:53;;;;;;;0.82;0.82;;;0.50;99.90;;;;;;4404971;32;20065;-74
2023/01/18 04:09:18;;;;;;;0.90;0.88;;;0.60;99.90;;;;;;4406962;32;20135;-74
2023/01/18 04:11:43;;;;;;;0.80;0.80;;;0.60;99.90;;;;;;4391549;32;20102;-75
2023/01/18 04:14:09;;;;;;;0.60;0.60;;;0.60;99.90;;;;;;4390779;32;20085;-73
2023/01/18 04:16:34;;;;;;;1.48;1.27;;;0.70;99.90;;;;;;4399257;32;20111;-72
2023/01/18 04:19:00;;;;;;;1.30;1.20;;;0.80;99.90;;;;;;4400141;32;20073;-73
2023/01/18 04:21:26;;;;;;;0.85;0.85;;;0.80;99.90;;;;;;4408467;32;20428;-73
2023/01/18 04:23:51;;;;;;;1.30;1.20;;;0.90;99.90;;;;;;4406033;32;20105;-73
2023/01/18 04:26:18;;;;;;;1.25;1.15;;;0.80;99.90;;;;;;4407460;32;20854;-72
2023/01/18 04:28:43;;;;;;;0.70;0.70;;;0.80;99.90;;;;;;4406466;32;20066;-75
2023/01/18 04:31:09;;;;;;;1.15;1.08;;;0.70;99.90;;;;;;4393545;32;20066;-73
2023/01/18 04:33:34;;;;;;;1.50;1.40;;;0.60;99.90;;;;;;4406040;32;20128;-74
2023/01/18 04:36:00;;;;;;;0.85;0.85;;;0.60;99.90;;;;;;4408609;32;20525;-73
2023/01/18 04:38:25;;;;;;;0.85;0.85;;;0.70;99.90;;;;;;4405924;32;20085;-73
2023/01/18 04:40:50;;;;;;;0.60;0.60;;;0.70;99.90;;;;;;4396613;32;20089;-73
2023/01/18 04:43:17;;;;;;;3.53;1.95;;;0.80;99.90;;;;;;4389472;32;20773;-73
2023/01/18 04:45:45;;;;;;;0.50;0.50;;;0.90;99.90;;;;;;4394983;32;20627;-72
2023/01/18 04:48:10;;;;;;;1.30;1.20;;;0.90;99.90;;;;;;4395757;32;20077;-74
2023/01/18 04:50:37;;;;;;;1.02;1.02;;;1.00;99.90;;;;;;4408136;32;20077;-73
2023/01/18 04:53:03;;;;;;;3.65;2.00;;;1.00;99.90;;;;;;4406819;32;20086;-73
2023/01/18 04:55:28;;;;;;;0.60;0.60;;;0.90;99.90;;;;;;4406611;32;20097;-73
2023/01/18 04:57:56;;;;;;;1.17;1.08;;;0.80;99.90;;;;;;4404892;32;20098;-74
2023/01/18 05:00:21;;;;;;;1.40;1.30;;;0.80;99.90;;;;;;4398383;32;20082;-73
2023/01/18 05:02:47;;;;;;;6.95;2.37;;;0.90;99.90;;;;;;4402643;32;20853;-73
2023/01/18 05:05:12;;;;;;;1.20;1.10;;;1.00;99.90;;;;;;4408961;32;20520;-73
2023/01/18 05:07:38;;;;;;;1.62;1.52;;;0.90;99.90;;;;;;4409192;32;20114;-73
2023/01/18 05:10:04;;;;;;;0.60;0.60;;;0.90;99.90;;;;;;4403585;32;20125;-73
2023/01/18 05:12:29;;;;;;;1.05;1.05;;;0.90;99.90;;;;;;4390580;32;20084;-73
2023/01/18 05:14:55;;;;;;;0.65;0.65;;;0.90;99.90;;;;;;4396171;32;20457;-74
2023/01/18 05:17:26;;;;;;;2.40;1.62;;;0.90;99.90;;;;;;4397111;32;20568;-73
2023/01/18 05:19:53;;;;;;;7.07;1.80;;;1.00;99.90;;;;;;4407020;32;20073;-73
2023/01/18 05:22:19;;;;;;;1.52;1.42;;;1.00;99.90;;;;;;4388350;32;20645;-73
2023/01/18 05:24:45;;;;;;;2.95;1.23;;;0.90;99.90;;;;;;4368060;32;20114;-73
2023/01/18 05:27:12;;;;;;;1.27;1.00;;;0.90;99.90;;;;;;4373136;32;20468;-73
2023/01/18 05:29:38;;;;;;;0.73;0.73;;;0.90;99.90;;;;;;4361788;32;20083;-74
2023/01/18 05:32:05;;;;;;;2.03;1.65;;;0.90;99.90;;;;;;4370516;32;20095;-73
2023/01/18 05:34:30;;;;;;;2.15;1.20;;;1.00;99.90;;;;;;4365864;32;20153;-73
2023/01/18 05:36:56;;;;;;;1.52;1.00;;;1.10;99.90;;;;;;4382839;32;20086;-72
2023/01/18 05:39:22;;;;;;;1.02;0.98;;;1.20;99.90;;;;;;4407697;32;20457;-73
2023/01/18 05:41:47;;;;;;;0.88;0.88;;;1.20;99.90;;;;;;4392471;32;20126;-73
2023/01/18 05:44:13;;;;;;;0.98;0.93;;;1.30;99.90;;;;;;4391780;32;20065;-74
2023/01/18 05:46:38;;;;;;;0.77;0.77;;;1.20;99.90;;;;;;4400196;32;20091;-74
2023/01/18 05:49:04;;;;;;;4.18;2.45;;;1.20;99.90;;;;;;4402482;32;20153;-73
2023/01/18 05:51:29;;;;;;;0.85;0.85;;;1.20;99.90;;;;;;4406406;32;20094;-73
2023/01/18 05:53:55;;;;;;;0.60;0.60;;;1.10;99.90;;;;;;4367103;32;20373;-74
2023/01/18 05:56:20;;;;;;;0.50;0.50;;;1.20;99.90;;;;;;4376165;32;20573;-73
2023/01/18 05:58:46;;;;;;;1.10;1.00;;;1.20;99.90;;;;;;4406962;32;20581;-73
2023/01/18 06:01:12;;;;;;;0.65;0.65;;;1.30;99.90;;;;;;4391093;32;20145;-73
2023/01/18 06:03:39;;;;;;;0.98;0.98;;;1.30;99.90;;;;;;4387107;32;20111;-74
2023/01/18 06:06:05;;;;;;;0.73;0.73;;;1.30;99.90;;;;;;4378224;32;20892;-74
2023/01/18 06:08:31;;;;;;;2.40;1.60;;;1.30;99.90;;;;;;4368117;32;20066;-74
2023/01/18 06:10:58;;;;;;;1.05;0.95;;;1.40;99.90;;;;;;4357487;32;20073;-73
2023/01/18 06:13:26;;;;;;;2.30;1.85;;;1.50;99.90;;;;;;4342290;32;20724;-73
2023/01/18 06:15:53;;;;;;;2.12;1.83;;;1.50;99.90;;;;;;4356171;32;20272;-73
2023/01/18 06:18:19;;;;;;;1.27;0.90;;;1.50;99.90;;;;;;4328262;32;20090;-74
2023/01/18 06:20:46;;;;;;;0.62;0.62;;;1.50;99.90;;;;;;4316922;32;21142;-73
2023/01/18 06:23:11;;;;;;;0.50;0.50;;;1.40;99.90;;;;;;4307917;32;20458;-73
2023/01/18 06:25:37;;;;;;;0.60;0.60;;;1.40;99.90;;;;;;4298101;32;21116;-73
2023/01/18 06:28:04;;;;;;;1.37;1.08;;;1.40;99.90;;;;;;4340056;32;21077;-73
2023/01/18 06:30:30;;;;;;;0.50;0.50;;;1.50;99.90;;;;;;4288362;32;20488;-74
2023/01/18 06:32:56;;;;;;;1.02;1.02;;;1.60;99.90;;;;;;4314618;32;20899;-73
2023/01/18 06:35:22;;;;;;;0.65;0.65;;;1.60;99.90;;;;;;4324953;32;20306;-73
2023/01/18 06:37:47;;;;;;;0.77;0.77;;;1.50;99.90;;;;;;4339541;32;20400;-73
2023/01/18 06:40:14;;;;;;;0.95;0.90;;;1.60;99.90;;;;;;4330120;32;22040;-75
2023/01/18 06:42:42;;;;;;;0.60;0.60;;;1.50;99.90;;;;;;4341442;32;20882;-74
2023/01/18 06:45:09;;;;;;;0.60;0.60;;;1.50;99.90;;;;;;4349875;32;20251;-74
2023/01/18 06:47:35;;;;;;;0.52;0.52;;;1.50;99.90;;;;;;4361228;32;20522;-73
2023/01/18 06:50:00;;;;;;;1.17;1.08;;;1.50;99.90;;;;;;4358860;32;20481;-74
2023/01/18 06:52:27;;;;;;;0.77;0.77;;;1.50;99.90;;;;;;4363665;32;20183;-74
2023/01/18 06:54:53;;;;;;;0.88;0.85;;;1.50;99.90;;;;;;4366016;32;20757;-74
2023/01/18 06:57:18;;;;;;;0.62;0.62;;;1.50;99.90;;;;;;4368441;32;22375;-73
2023/01/18 06:59:44;;;;;;;0.50;0.50;;;1.70;99.90;;;;;;4349451;32;21169;-73
2023/01/18 07:02:13;;;;;;;0.73;0.73;;;1.70;99.90;;;;;;4342972;32;21483;-74
2023/01/18 07:04:42;;;;;;;1.15;1.05;;;1.70;99.90;;;;;;4331062;32;21210;-75
2023/01/18 07:07:08;;;;;;;1.02;1.02;;;1.70;99.90;;;;;;4355726;32;20491;-74
2023/01/18 07:09:34;;;;;;;2.22;1.55;;;1.70;99.90;;;;;;4354958;32;20204;-74
2023/01/18 07:11:59;;;;;;;0.90;0.90;;;1.70;99.90;;;;;;4353910;32;21283;-75
2023/01/18 07:14:25;;;;;;;0.60;0.60;;;1.60;99.90;;;;;;4356704;32;21110;-74
2023/01/18 07:16:50;;;;;;;0.40;0.40;;;1.70;99.90;;;;;;4354546;32;20702;-75
2023/01/18 07:19:16;;;;;;;0.90;0.90;;;1.70;99.90;;;;;;4353249;32;20103;-75
2023/01/18 07:21:41;;;;;;;1.02;1.02;;;1.70;99.90;;;;;;4364095;32;20631;-74
2023/01/18 07:24:07;;;;;;;0.47;0.47;;;1.80;99.90;;;;;;4355720;32;20101;-74
2023/01/18 07:26:32;;;;;;;0.80;0.80;;;1.90;99.90;;;;;;4365370;32;20758;-75
2023/01/18 07:28:58;;;;;;;0.75;0.75;;;2.00;99.90;;;;;;4359019;32;20730;-74
2023/01/18 07:31:25;;;;;;;0.75;0.75;;;2.00;99.90;;;;;;4355310;32;20085;-75
2023/01/18 07:33:51;;;;;;;0.88;0.88;;;1.90;99.90;;;;;;4344876;32;20175;-75
2023/01/18 07:36:16;;;;;;;0.50;0.50;;;2.00;99.90;;;;;;4349222;32;20182;-76
2023/01/18 07:38:42;;;;;;;3.20;1.70;;;2.00;99.90;;;;;;4355882;32;20113;-74
2023/01/18 07:41:10;;;;;;;0.60;0.57;;;2.00;99.90;;;;;;4349950;32;20745;-73
2023/01/18 07:43:37;;;;;;;3.53;1.40;;;2.00;99.90;;;;;;4356041;32;20220;-74
2023/01/18 07:46:04;;;;;;;1.23;1.00;;;2.00;99.90;;;;;;4358446;32;20125;-74
2023/01/18 07:48:30;;;;;;;0.60;0.60;;;2.10;99.90;;;;;;4345739;32;20388;-73
2023/01/18 07:50:58;;;;;;;0.70;0.70;;;2.10;99.90;;;;;;4354334;32;20078;-74
2023/01/18 07:53:25;;;;;;;0.75;0.75;;;2.10;99.90;;;;;;4357822;32;20097;-73
2023/01/18 07:55:51;;;;;;;0.60;0.60;;;2.20;99.90;;;;;;4356879;32;20117;-74
2023/01/18 07:58:18;;;;;;;0.47;0.47;;;2.30;99.90;;;;;;4360585;32;20254;-73
2023/01/18 08:00:43;;;;;;;0.45;0.45;;;2.20;99.90;;;;;;4343708;32;20393;-74
2023/01/18 08:03:11;;;;;;;0.95;0.88;;;2.30;99.90;;;;;;4352281;32;20880;-76
2023/01/18 08:05:36;;;;;;;0.88;0.88;;;2.30;99.90;;;;;;4350000;32;21830;-75
2023/01/18 08:08:02;;;;;;;0.70;0.70;;;2.30;99.90;;;;;;4358940;32;20208;-75
2023/01/18 08:10:28;;;;;;;0.57;0.57;;;2.30;99.90;;;;;;4351712;32;20287;-73
2023/01/18 08:12:54;;;;;;;3.60;1.37;;;2.30;99.90;;;;;;4353643;32;20098;-74
2023/01/18 08:15:19;;;;;;;0.60;0.60;;;2.40;99.90;;;;;;4357536;32;21471;-73
2023/01/18 08:17:45;;;;;;;0.57;0.57;;;2.40;99.90;;;;;;4354599;32;20335;-74
2023/01/18 08:20:10;;;;;;;0.85;0.85;;;2.30;99.90;;;;;;4353019;32;20141;-75
2023/01/18 08:22:36;;;;;;;0.57;0.57;;;2.30;99.90;;;;;;4360492;32;20626;-75
2023/01/18 08:25:03;;;;;;;0.93;0.85;;;2.30;99.90;;;;;;4348509;32;20670;-74
2023/01/18 08:27:28;;;;;;;0.60;0.60;;;2.40;99.90;;;;;;4360674;32;20081;-74
2023/01/18 08:29:55;;;;;;;1.25;1.15;;;2.50;99.90;;;;;;4336546;32;20726;-76
2023/01/18 08:32:21;;;;;;;9.93;1.48;;;2.50;99.90;;;;;;4328564;32;20358;-75
2023/01/18 08:34:46;;;;;;;0.43;0.43;;;2.60;99.90;;;;;;4324679;32;20090;-74
2023/01/18 08:37:12;;;;;;;0.60;0.60;;;2.60;99.90;;;;;;4343913;32;20102;-75
2023/01/18 08:39:37;;;;;;;0.60;0.60;;;2.60;99.90;;;;;;4373272;32;20982;-75
2023/01/18 08:42:03;;;;;;;0.40;0.40;;;2.60;99.90;;;;;;4375546;32;20098;-74
2023/01/18 08:44:29;;;;;;;0.52;0.52;;;2.60;99.90;;;;;;4382915;32;20145;-75
2023/01/18 08:46:54;;;;;;;0.50;0.50;;;2.70;99.90;;;;;;4379909;32;20209;-73
2023/01/18 08:49:20;;;;;;;0.40;0.40;;;2.70;99.90;;;;;;4353411;32;20830;-74
2023/01/18 08:51:45;;;;;;;1.15;1.05;;;2.60;99.90;;;;;;4347996;32;21337;-74
2023/01/18 08:54:11;;;;;;;0.70;0.70;;;2.60;99.90;;;;;;4355460;32;20110;-74
2023/01/18 08:56:36;;;;;;;0.60;0.60;;;2.70;99.90;;;;;;4362192;32;20546;-75
2023/01/18 08:59:06;;;;;;;0.77;0.77;;;2.80;99.90;;;;;;4348908;32;20109;-73
2023/01/18 09:01:31;;;;;;;0.60;0.60;;;2.90;99.90;;;;;;4348576;32;20114;-74
2023/01/18 09:03:57;;;;;;;0.65;0.65;;;2.90;99.90;;;;;;4345221;32;20522;-74
2023/01/18 09:06:22;;;;;;;0.60;0.60;;;2.90;99.90;;;;;;4360387;32;20251;-73
2023/01/18 09:08:48;;;;;;;0.40;0.40;;;2.90;99.90;;;;;;4358084;32;22103;-73
2023/01/18 09:11:15;;;;;;;0.62;0.62;;;2.90;99.90;;;;;;4353184;32;20158;-73
2023/01/18 09:13:40;;;;;;;0.70;0.70;;;2.90;99.90;;;;;;4364037;32;20692;-74
2023/01/18 09:16:08;;;;;;;1.67;1.17;;;3.00;99.90;;;;;;4359065;32;20410;-74
2023/01/18 09:18:35;;;;;;;0.40;0.40;;;3.00;99.90;;;;;;4350275;32;20101;-75
2023/01/18 09:21:10;;;;;;;0.50;0.50;;;3.00;99.90;;;;;;4359230;32;20203;-74
2023/01/18 09:23:38;;;;;;;0.50;0.50;;;3.10;99.90;;;;;;4359206;32;20909;-74
2023/01/18 09:26:08;;;;;;;0.90;0.90;;;3.10;99.90;;;;;;4362610;32;20118;-74
2023/01/18 09:28:35;;;;;;;0.60;0.60;;;3.20;99.90;;;;;;4357855;32;20102;-74
2023/01/18 09:31:03;;;;;;;16.02;1.35;;;3.20;99.90;;;;;;4344385;32;20144;-74
2023/01/18 09:33:28;;;;;;;0.60;0.45;;;3.30;99.90;;;;;;4348198;32;20460;-74
2023/01/18 09:35:55;;;;;;;0.45;0.45;;;3.40;99.90;;;;;;4352829;32;20168;-75
2023/01/18 09:38:21;;;;;;;0.65;0.65;;;3.30;99.90;;;;;;4357703;32;20261;-75
2023/01/18 09:40:49;;;;;;;1.90;1.20;;;3.40;99.90;;;;;;4365048;32;20169;-73
2023/01/18 09:43:23;;;;;;;0.45;0.45;;;3.40;99.90;;;;;;4356279;32;20536;-74
2023/01/18 09:45:49;;;;;;;0.70;0.70;;;3.30;99.90;;;;;;4361428;32;20805;-74
2023/01/18 09:48:36;;;;;;;0.70;0.70;;;3.40;99.90;;;;;;4360490;32;20299;-74
2023/01/18 09:51:10;;;;;;;2.47;1.35;;;3.40;99.90;;;;;;4351723;32;20191;-74
2023/01/18 09:54:02;;;;;;;0.73;0.73;;;3.40;99.90;;;;;;4354229;32;20117;-75
2023/01/18 09:56:37;;;;;;;4.28;1.65;;;3.50;99.90;;;;;;4347130;32;20102;-73
2023/01/18 09:59:16;;;;;;;0.62;0.62;;;3.50;99.90;;;;;;4345616;32;20576;-74
2023/01/18 10:01:42;;;;;;;9.15;1.60;;;3.50;99.90;;;;;;4330805;32;21111;-74
2023/01/18 10:04:16;;;;;;;0.60;0.60;;;3.60;99.90;;;;;;4339453;32;20329;-73
2023/01/18 10:06:48;;;;;;;0.47;0.47;;;3.60;99.90;;;;;;4352105;32;20106;-75
2023/01/18 10:09:21;;;;;;;0.75;0.75;;;3.60;99.90;;;;;;4349684;32;21544;-74
2023/01/18 10:12:13;;;;;;;0.68;0.68;;;3.70;99.90;;;;;;4339656;32;20138;-74
2023/01/18 10:14:46;;;;;;;0.50;0.50;;;3.70;99.90;;;;;;4333927;32;20392;-75
2023/01/18 10:17:16;;;;;;;0.70;0.70;;;3.80;99.90;;;;;;4344067;32;20893;-75
2023/01/18 10:19:42;;;;;;;0.70;0.70;;;3.90;99.90;;;;;;4334449;32;20651;-75
2023/01/18 10:22:23;;;;;;;0.50;0.50;;;4.00;99.90;;;;;;4331195;32;20219;-75
2023/01/18 10:25:01;;;;;;;0.90;0.90;;;4.10;99.90;;;;;;4335841;32;20134;-74
2023/01/18 10:27:46;;;;;;;0.60;0.60;;;4.20;99.90;;;;;;4331075;32;20276;-74
2023/01/18 10:30:15;;;;;;;0.77;0.77;;;4.20;99.90;;;;;;4320947;32;20123;-72
2023/01/18 10:32:50;;;;;;;1.48;1.08;;;4.30;99.90;;;;;;4319456;32;20170;-73
2023/01/18 10:35:28;;;;;;;0.70;0.70;;;4.40;99.90;;;;;;4345415;32;20651;-73
2023/01/18 10:37:58;;;;;;;0.45;0.45;;;4.30;99.90;;;;;;4352102;32;20436;-73
2023/01/18 10:40:24;;;;;;;8.73;1.02;;;4.20;99.90;;;;;;4354473;32;20086;-73
2023/01/18 10:42:55;;;;;;;0.60;0.60;;;4.20;99.90;;;;;;4344190;32;21642;-73
2023/01/18 10:45:24;;;;;;;0.50;0.50;;;4.20;99.90;;;;;;4353860;32;20204;-73
2023/01/18 10:47:52;;;;;;;0.43;0.43;;;4.10;99.90;;;;;;4349606;32;20106;-73
2023/01/18 10:50:23;;;;;;;0.60;0.60;;;4.10;99.90;;;;;;4345972;32;20505;-74
2023/01/18 10:52:49;;;;;;;2.00;1.58;;;4.20;99.90;;;;;;4356918;32;20101;-74
2023/01/18 10:55:17;;;;;;;0.50;0.50;;;4.10;99.90;;;;;;4353125;32;20679;-75
2023/01/18 10:57:46;;;;;;;0.60;0.60;;;4.00;99.90;;;;;;4356853;32;21631;-74
2023/01/18 11:00:32;;;;;;;3.53;1.10;;;4.10;99.90;;;;;;4343501;32;20109;-74
2023/01/18 11:03:00;;;;;;;1.10;0.60;;;4.00;99.90;;;;;;4342262;32;20205;-73
2023/01/18 11:05:38;;;;;;;1.17;1.08;;;4.00;99.90;;;;;;4367172;32;20712;-75
2023/01/18 11:08:18;;;;;;;2.22;0.93;;;4.00;99.90;;;;;;4377765;32;20090;-73
2023/01/18 11:10:44;;;;;;;0.45;0.45;;;4.10;99.90;;;;;;4368627;32;20375;-74
2023/01/18 11:13:44;;;;;;;0.50;0.50;;;4.10;99.90;;;;;;4364986;32;20721;-74
2023/01/18 11:16:13;;;;;;;1.23;1.12;;;4.10;99.90;;;;;;4332007;32;20735;-74
2023/01/18 11:19:01;;;;;;;0.40;0.40;;;4.10;99.90;;;;;;4349377;32;20816;-73
2023/01/18 11:21:43;;;;;;;0.60;0.60;;;4.10;99.90;;;;;;4353339;32;20086;-73
2023/01/18 11:24:15;;;;;;;5.28;1.42;;;4.20;99.90;;;;;;4377382;32;20392;-75
2023/01/18 11:26:52;;;;;;;4.47;2.35;;;4.10;99.90;;;;;;4380514;32;20089;-73
2023/01/18 11:29:18;;;;;;;0.40;0.40;;;4.10;99.90;;;;;;4374827;32;20906;-74
2023/01/18 11:31:46;;;;;;;0.40;0.40;;;4.20;99.90;;;;;;4361088;32;20281;-74
2023/01/18 11:34:33;;;;;;;0.45;0.45;;;4.20;99.90;;;;;;4360929;32;20257;-74
2023/01/18 11:37:01;;;;;;;0.45;0.45;;;4.10;99.90;;;;;;4370614;32;20569;-74
2023/01/18 11:39:32;;;;;;;0.57;0.57;;;4.10;99.90;;;;;;4386686;32;20846;-73
2023/01/18 11:42:29;;;;;;;0.60;0.60;;;4.10;99.90;;;;;;4381011;32;109618;-73
2023/01/18 11:45:00;;;;;;;0.60;0.60;;;4.00;99.90;;;;;;4369577;32;20093;-74
2023/01/18 11:47:36;;;;;;;0.50;0.50;;;4.10;99.90;;;;;;4382372;32;20118;-74
2023/01/18 11:50:12;;;;;;;0.50;0.50;;;4.00;99.90;;;;;;4363793;32;20070;-74
2023/01/18 11:52:45;;;;;;;0.40;0.40;;;3.90;99.90;;;;;;4370981;32;20214;-74
2023/01/18 11:55:30;;;;;;;0.50;0.50;;;4.00;99.90;;;;;;4357249;32;20109;-74
2023/01/18 11:57:57;;;;;;;0.60;0.60;;;4.00;99.90;;;;;;4363183;32;20097;-74
2023/01/18 12:00:27;;;;;;;7.65;3.08;;;4.00;99.90;;;;;;4352692;32;20221;-74
2023/01/18 12:03:08;;;;;;;0.65;0.65;;;4.00;99.90;;;;;;4349496;32;20858;-75
2023/01/18 12:05:43;;;;;;;0.60;0.60;;;4.10;99.90;;;;;;4345401;32;20299;-75
2023/01/18 12:08:21;;;;;;;0.50;0.50;;;4.00;99.90;;;;;;4379297;32;20127;-75
2023/01/18 12:11:23;;;;;;;0.62;0.62;;;4.00;99.90;;;;;;4367579;32;20106;-76
2023/01/18 12:14:11;;;;;;;0.50;0.50;;;4.00;99.90;;;;;;4354040;32;20125;-74
2023/01/18 12:17:17;;;;;;;0.50;0.50;;;4.10;99.90;;;;;;4369244;32;20105;-74
2023/01/18 12:19:53;;;;;;;1.55;0.93;;;4.10;99.90;;;;;;4337676;32;20268;-74
2023/01/18 12:22:28;;;;;;;0.60;0.60;;;4.10;99.90;;;;;;4362496;32;20129;-73
2023/01/18 12:25:17;;;;;;;0.60;0.60;;;4.10;99.90;;;;;;4372693;32;20645;-75
2023/01/18 12:28:08;;;;;;;1.58;1.48;;;4.00;99.90;;;;;;4371916;32;20102;-75
2023/01/18 12:31:14;;;;;;;0.40;0.40;;;4.00;99.90;;;;;;4338283;32;20368;-74
2023/01/18 12:33:56;;;;;;;0.60;0.60;;;3.90;99.90;;;;;;4344469;32;20376;-75
2023/01/18 12:36:48;;;;;;;0.35;0.35;;;3.90;99.90;;;;;;4369473;32;20086;-74
2023/01/18 12:39:35;;;;;;;0.80;0.80;;;3.80;99.90;;;;;;4357876;32;21316;-74
2023/01/18 12:42:12;;;;;;;0.62;0.62;;;3.70;99.90;;;;;;4329768;32;25176;-73
2023/01/18 12:44:55;;;;;;;0.68;0.68;;;3.70;99.90;;;;;;4335295;32;20746;-74
2023/01/18 12:47:39;;;;;;;0.75;0.65;;;3.70;99.90;;;;;;4342568;32;20219;-74
2023/01/18 12:50:28;;;;;;;3.40;1.30;;;3.80;99.90;;;;;;4317663;32;21108;-74
2023/01/18 12:53:00;;;;;;;0.40;0.40;;;3.80;99.90;;;;;;4329324;32;20188;-75
2023/01/18 12:55:30;;;;;;;0.62;0.62;;;3.80;99.90;;;;;;4366543;32;21238;-74
2023/01/18 12:57:57;;;;;;;0.45;0.45;;;3.70;99.90;;;;;;4363418;32;20217;-74
2023/01/18 13:00:34;;;;;;;0.57;0.57;;;3.80;99.90;;;;;;4341362;32;20372;-74
2023/01/18 13:03:03;;;;;;;0.60;0.60;;;3.70;99.90;;;;;;4345463;32;20109;-74
2023/01/18 13:05:36;;;;;;;0.40;0.40;;;3.70;99.90;;;;;;4351197;32;20514;-74
2023/01/18 13:08:23;;;;;;;1.45;0.80;;;3.80;99.90;;;;;;4357569;32;20089;-74
2023/01/18 13:10:49;;;;;;;0.62;0.62;;;3.80;99.90;;;;;;4346477;32;20113;-74
2023/01/18 13:13:22;;;;;;;0.62;0.62;;;3.90;99.90;;;;;;4356676;32;21011;-73
2023/01/18 13:16:04;;;;;;;1.65;1.15;;;3.90;99.90;;;;;;4363730;32;20097;-74
2023/01/18 13:18:41;;;;;;;4.30;1.27;;;3.80;99.90;;;;;;4345795;32;20250;-74
2023/01/18 13:21:09;;;;;;;3.22;1.87;;;3.90;99.90;;;;;;4347537;32;20114;-73
2023/01/18 13:23:59;;;;;;;0.88;0.88;;;3.70;99.90;;;;;;4362978;32;20558;-74
2023/01/18 13:26:28;;;;;;;1.98;1.75;;;3.70;99.90;;;;;;4362282;32;20170;-75
2023/01/18 13:29:15;;;;;;;3.85;0.98;;;3.80;99.90;;;;;;4358638;32;20105;-74
2023/01/18 13:31:42;;;;;;;0.90;0.85;;;3.70;99.90;;;;;;4339827;32;21129;-73
2023/01/18 13:34:32;;;;;;;0.52;0.52;;;3.70;99.90;;;;;;4345152;32;20889;-74